sensor_id;sensor_type;location;lat;lon;timestamp;P1;durP1;ratioP1;P2;durP2;ratioP2
29200;SDS011;16244;51.956;12.980;2022-09-09T00:00:12;7.30;;;5.90;;
29200;SDS011;16244;51.956;12.980;2022-09-09T00:02:59;5.90;;;5.30;;
29200;SDS011;16244;51.956;12.980;2022-09-09T00:05:41;9.30;;;6.40;;
29200;SDS011;16244;51.956;12.980;2022-09-09T00:08:34;6.30;;;5.70;;
29200;SDS011;16244;51.956;12.980;2022-09-09T00:11:26;6.50;;;5.90;;
29200;SDS011;16244;51.956;12.980;2022-09-09T00:13:59;11.03;;;5.40;;
29200;SDS011;16244;51.956;12.980;2022-09-09T00:16:47;6.47;;;5.80;;
29200;SDS011;16244;51.956;12.980;2022-09-09T00:19:47;7.43;;;5.70;;
29200;SDS011;16244;51.956;12.980;2022-09-09T00:22:22;10.43;;;5.93;;
29200;SDS011;16244;51.956;12.980;2022-09-09T00:24:52;7.30;;;6.50;;
29200;SDS011;16244;51.956;12.980;2022-09-09T00:27:23;7.33;;;6.20;;
29200;SDS011;16244;51.956;12.980;2022-09-09T00:29:58;6.13;;;5.20;;
29200;SDS011;16244;51.956;12.980;2022-09-09T00:32:55;11.13;;;5.60;;
29200;SDS011;16244;51.956;12.980;2022-09-09T00:39:00;8.80;;;5.80;;
29200;SDS011;16244;51.956;12.980;2022-09-09T00:41:32;7.03;;;5.30;;
29200;SDS011;16244;51.956;12.980;2022-09-09T00:44:28;5.97;;;5.37;;
29200;SDS011;16244;51.956;12.980;2022-09-09T00:47:17;6.03;;;4.70;;
29200;SDS011;16244;51.956;12.980;2022-09-09T00:50:15;6.80;;;5.23;;
29200;SDS011;16244;51.956;12.980;2022-09-09T00:53:12;5.23;;;4.73;;
29200;SDS011;16244;51.956;12.980;2022-09-09T00:56:12;6.93;;;4.70;;
29200;SDS011;16244;51.956;12.980;2022-09-09T00:58:41;5.37;;;4.83;;
29200;SDS011;16244;51.956;12.980;2022-09-09T01:01:24;6.50;;;4.80;;
29200;SDS011;16244;51.956;12.980;2022-09-09T01:04:16;5.33;;;4.93;;
29200;SDS011;16244;51.956;12.980;2022-09-09T01:07:07;5.33;;;4.83;;
29200;SDS011;16244;51.956;12.980;2022-09-09T01:13:02;8.60;;;5.27;;
29200;SDS011;16244;51.956;12.980;2022-09-09T01:15:54;5.50;;;4.33;;
29200;SDS011;16244;51.956;12.980;2022-09-09T01:18:22;8.73;;;4.87;;
29200;SDS011;16244;51.956;12.980;2022-09-09T01:20:54;7.60;;;4.60;;
29200;SDS011;16244;51.956;12.980;2022-09-09T01:23:41;6.87;;;4.80;;
29200;SDS011;16244;51.956;12.980;2022-09-09T01:26:49;7.57;;;4.77;;
29200;SDS011;16244;51.956;12.980;2022-09-09T01:29:33;9.40;;;4.93;;
29200;SDS011;16244;51.956;12.980;2022-09-09T01:32:01;5.30;;;4.80;;
29200;SDS011;16244;51.956;12.980;2022-09-09T01:34:31;4.57;;;3.97;;
29200;SDS011;16244;51.956;12.980;2022-09-09T01:37:06;4.20;;;3.83;;
29200;SDS011;16244;51.956;12.980;2022-09-09T01:42:20;12.10;;;4.33;;
29200;SDS011;16244;51.956;12.980;2022-09-09T01:44:47;8.37;;;4.10;;
29200;SDS011;16244;51.956;12.980;2022-09-09T01:47:15;7.00;;;4.40;;
29200;SDS011;16244;51.956;12.980;2022-09-09T01:49:43;5.17;;;3.53;;
29200;SDS011;16244;51.956;12.980;2022-09-09T01:52:10;4.67;;;4.13;;
29200;SDS011;16244;51.956;12.980;2022-09-09T01:54:37;5.03;;;3.33;;
29200;SDS011;16244;51.956;12.980;2022-09-09T01:57:06;7.43;;;4.10;;
29200;SDS011;16244;51.956;12.980;2022-09-09T02:02:29;4.80;;;3.40;;
29200;SDS011;16244;51.956;12.980;2022-09-09T02:05:06;3.67;;;3.33;;
29200;SDS011;16244;51.956;12.980;2022-09-09T02:07:43;4.60;;;3.23;;
29200;SDS011;16244;51.956;12.980;2022-09-09T02:10:16;7.10;;;3.00;;
29200;SDS011;16244;51.956;12.980;2022-09-09T02:12:47;5.00;;;3.13;;
29200;SDS011;16244;51.956;12.980;2022-09-09T02:15:21;4.70;;;3.10;;
29200;SDS011;16244;51.956;12.980;2022-09-09T02:17:53;7.33;;;2.93;;
29200;SDS011;16244;51.956;12.980;2022-09-09T02:20:25;8.10;;;3.07;;
29200;SDS011;16244;51.956;12.980;2022-09-09T02:22:54;4.23;;;3.30;;
29200;SDS011;16244;51.956;12.980;2022-09-09T02:25:24;4.47;;;2.90;;
29200;SDS011;16244;51.956;12.980;2022-09-09T02:27:53;7.03;;;3.13;;
29200;SDS011;16244;51.956;12.980;2022-09-09T02:30:22;4.37;;;2.87;;
29200;SDS011;16244;51.956;12.980;2022-09-09T02:32:50;5.80;;;2.43;;
29200;SDS011;16244;51.956;12.980;2022-09-09T02:35:22;7.43;;;2.77;;
29200;SDS011;16244;51.956;12.980;2022-09-09T02:37:52;6.43;;;2.70;;
29200;SDS011;16244;51.956;12.980;2022-09-09T02:40:24;3.30;;;2.93;;
29200;SDS011;16244;51.956;12.980;2022-09-09T02:42:51;2.77;;;2.13;;
29200;SDS011;16244;51.956;12.980;2022-09-09T02:45:22;4.83;;;2.40;;
29200;SDS011;16244;51.956;12.980;2022-09-09T02:47:55;3.70;;;2.30;;
29200;SDS011;16244;51.956;12.980;2022-09-09T02:50:31;3.37;;;2.90;;
29200;SDS011;16244;51.956;12.980;2022-09-09T02:53:03;4.20;;;2.40;;
29200;SDS011;16244;51.956;12.980;2022-09-09T02:55:38;2.80;;;2.33;;
29200;SDS011;16244;51.956;12.980;2022-09-09T02:58:08;2.63;;;2.40;;
29200;SDS011;16244;51.956;12.980;2022-09-09T03:00:39;3.43;;;2.60;;
29200;SDS011;16244;51.956;12.980;2022-09-09T03:03:07;2.77;;;2.30;;
29200;SDS011;16244;51.956;12.980;2022-09-09T03:05:35;5.03;;;3.23;;
29200;SDS011;16244;51.956;12.980;2022-09-09T03:08:03;2.27;;;2.07;;
29200;SDS011;16244;51.956;12.980;2022-09-09T03:10:31;5.73;;;2.60;;
29200;SDS011;16244;51.956;12.980;2022-09-09T03:13:00;2.67;;;2.47;;
29200;SDS011;16244;51.956;12.980;2022-09-09T03:15:27;7.13;;;2.53;;
29200;SDS011;16244;51.956;12.980;2022-09-09T03:17:58;2.43;;;2.23;;
29200;SDS011;16244;51.956;12.980;2022-09-09T03:20:26;10.80;;;3.20;;
29200;SDS011;16244;51.956;12.980;2022-09-09T03:22:55;4.87;;;2.40;;
29200;SDS011;16244;51.956;12.980;2022-09-09T03:25:23;6.50;;;2.73;;
29200;SDS011;16244;51.956;12.980;2022-09-09T03:27:51;5.50;;;2.57;;
29200;SDS011;16244;51.956;12.980;2022-09-09T03:30:19;8.00;;;2.27;;
29200;SDS011;16244;51.956;12.980;2022-09-09T03:32:47;3.07;;;2.60;;
29200;SDS011;16244;51.956;12.980;2022-09-09T03:35:15;10.93;;;2.20;;
29200;SDS011;16244;51.956;12.980;2022-09-09T03:37:43;2.90;;;2.10;;
29200;SDS011;16244;51.956;12.980;2022-09-09T03:40:10;6.70;;;2.63;;
29200;SDS011;16244;51.956;12.980;2022-09-09T03:42:38;3.20;;;2.40;;
29200;SDS011;16244;51.956;12.980;2022-09-09T03:45:07;6.47;;;2.20;;
29200;SDS011;16244;51.956;12.980;2022-09-09T03:47:36;2.33;;;1.80;;
29200;SDS011;16244;51.956;12.980;2022-09-09T03:50:03;8.43;;;2.40;;
29200;SDS011;16244;51.956;12.980;2022-09-09T03:52:35;3.17;;;2.33;;
29200;SDS011;16244;51.956;12.980;2022-09-09T03:55:03;3.60;;;2.70;;
29200;SDS011;16244;51.956;12.980;2022-09-09T03:57:31;3.40;;;1.90;;
29200;SDS011;16244;51.956;12.980;2022-09-09T04:00:00;6.93;;;2.10;;
29200;SDS011;16244;51.956;12.980;2022-09-09T04:02:29;3.57;;;2.13;;
29200;SDS011;16244;51.956;12.980;2022-09-09T04:04:56;4.80;;;2.13;;
29200;SDS011;16244;51.956;12.980;2022-09-09T04:07:23;2.43;;;2.30;;
29200;SDS011;16244;51.956;12.980;2022-09-09T04:09:52;2.77;;;1.97;;
29200;SDS011;16244;51.956;12.980;2022-09-09T04:12:20;2.20;;;2.00;;
29200;SDS011;16244;51.956;12.980;2022-09-09T04:14:47;4.90;;;2.27;;
29200;SDS011;16244;51.956;12.980;2022-09-09T04:17:15;4.53;;;2.30;;
29200;SDS011;16244;51.956;12.980;2022-09-09T04:19:42;7.13;;;2.50;;
29200;SDS011;16244;51.956;12.980;2022-09-09T04:22:10;5.80;;;2.17;;
29200;SDS011;16244;51.956;12.980;2022-09-09T04:24:37;4.30;;;2.27;;
29200;SDS011;16244;51.956;12.980;2022-09-09T04:27:05;4.77;;;2.17;;
29200;SDS011;16244;51.956;12.980;2022-09-09T04:29:32;5.67;;;2.30;;
29200;SDS011;16244;51.956;12.980;2022-09-09T04:32:00;4.67;;;1.90;;
29200;SDS011;16244;51.956;12.980;2022-09-09T04:34:27;3.83;;;2.43;;
29200;SDS011;16244;51.956;12.980;2022-09-09T04:36:55;3.77;;;2.07;;
29200;SDS011;16244;51.956;12.980;2022-09-09T04:39:22;8.40;;;4.30;;
29200;SDS011;16244;51.956;12.980;2022-09-09T04:41:50;15.80;;;8.30;;
29200;SDS011;16244;51.956;12.980;2022-09-09T04:44:18;7.50;;;5.00;;
29200;SDS011;16244;51.956;12.980;2022-09-09T04:46:45;4.67;;;2.80;;
29200;SDS011;16244;51.956;12.980;2022-09-09T04:49:13;19.63;;;2.10;;
29200;SDS011;16244;51.956;12.980;2022-09-09T04:51:40;4.37;;;1.60;;
29200;SDS011;16244;51.956;12.980;2022-09-09T04:54:07;4.50;;;2.17;;
29200;SDS011;16244;51.956;12.980;2022-09-09T04:56:34;7.27;;;2.27;;
29200;SDS011;16244;51.956;12.980;2022-09-09T04:59:01;8.27;;;2.40;;
29200;SDS011;16244;51.956;12.980;2022-09-09T05:01:31;7.00;;;2.60;;
29200;SDS011;16244;51.956;12.980;2022-09-09T05:03:58;2.90;;;2.30;;
29200;SDS011;16244;51.956;12.980;2022-09-09T05:06:25;6.47;;;2.70;;
29200;SDS011;16244;51.956;12.980;2022-09-09T05:08:52;9.90;;;6.63;;
29200;SDS011;16244;51.956;12.980;2022-09-09T05:11:20;8.33;;;3.77;;
29200;SDS011;16244;51.956;12.980;2022-09-09T05:13:48;5.00;;;2.80;;
29200;SDS011;16244;51.956;12.980;2022-09-09T05:16:16;6.07;;;2.77;;
29200;SDS011;16244;51.956;12.980;2022-09-09T05:18:45;8.87;;;3.93;;
29200;SDS011;16244;51.956;12.980;2022-09-09T05:21:14;9.33;;;3.77;;
29200;SDS011;16244;51.956;12.980;2022-09-09T05:23:42;3.53;;;2.47;;
29200;SDS011;16244;51.956;12.980;2022-09-09T05:26:12;7.43;;;1.80;;
29200;SDS011;16244;51.956;12.980;2022-09-09T05:28:40;4.57;;;2.27;;
29200;SDS011;16244;51.956;12.980;2022-09-09T05:31:08;2.97;;;2.03;;
29200;SDS011;16244;51.956;12.980;2022-09-09T05:33:38;5.67;;;2.40;;
29200;SDS011;16244;51.956;12.980;2022-09-09T05:36:09;6.73;;;2.10;;
29200;SDS011;16244;51.956;12.980;2022-09-09T05:38:39;4.20;;;2.00;;
29200;SDS011;16244;51.956;12.980;2022-09-09T05:41:07;4.53;;;2.33;;
29200;SDS011;16244;51.956;12.980;2022-09-09T05:43:35;3.57;;;2.17;;
29200;SDS011;16244;51.956;12.980;2022-09-09T05:46:03;7.60;;;2.30;;
29200;SDS011;16244;51.956;12.980;2022-09-09T05:48:32;4.13;;;1.97;;
29200;SDS011;16244;51.956;12.980;2022-09-09T05:51:00;6.43;;;3.40;;
29200;SDS011;16244;51.956;12.980;2022-09-09T05:53:29;5.50;;;2.53;;
29200;SDS011;16244;51.956;12.980;2022-09-09T05:56:00;4.00;;;2.10;;
29200;SDS011;16244;51.956;12.980;2022-09-09T05:58:29;4.80;;;2.20;;
29200;SDS011;16244;51.956;12.980;2022-09-09T06:01:03;7.50;;;1.57;;
29200;SDS011;16244;51.956;12.980;2022-09-09T06:03:32;6.83;;;1.70;;
29200;SDS011;16244;51.956;12.980;2022-09-09T06:06:02;6.10;;;1.90;;
29200;SDS011;16244;51.956;12.980;2022-09-09T06:08:32;5.00;;;1.73;;
29200;SDS011;16244;51.956;12.980;2022-09-09T06:11:02;3.97;;;1.40;;
29200;SDS011;16244;51.956;12.980;2022-09-09T06:13:31;13.07;;;1.93;;
29200;SDS011;16244;51.956;12.980;2022-09-09T06:15:59;6.40;;;1.73;;
29200;SDS011;16244;51.956;12.980;2022-09-09T06:18:26;3.83;;;1.77;;
29200;SDS011;16244;51.956;12.980;2022-09-09T06:20:54;4.70;;;2.07;;
29200;SDS011;16244;51.956;12.980;2022-09-09T06:23:22;8.43;;;5.50;;
29200;SDS011;16244;51.956;12.980;2022-09-09T06:25:50;7.40;;;4.00;;
29200;SDS011;16244;51.956;12.980;2022-09-09T06:28:18;10.33;;;4.00;;
29200;SDS011;16244;51.956;12.980;2022-09-09T06:30:45;4.33;;;2.13;;
29200;SDS011;16244;51.956;12.980;2022-09-09T06:33:12;5.13;;;1.77;;
29200;SDS011;16244;51.956;12.980;2022-09-09T06:35:40;3.73;;;1.53;;
29200;SDS011;16244;51.956;12.980;2022-09-09T06:38:07;6.30;;;1.50;;
29200;SDS011;16244;51.956;12.980;2022-09-09T06:40:34;3.23;;;1.47;;
29200;SDS011;16244;51.956;12.980;2022-09-09T06:43:03;3.93;;;1.20;;
29200;SDS011;16244;51.956;12.980;2022-09-09T06:45:31;1.70;;;1.57;;
29200;SDS011;16244;51.956;12.980;2022-09-09T06:47:58;5.70;;;3.00;;
29200;SDS011;16244;51.956;12.980;2022-09-09T06:50:25;6.53;;;1.40;;
29200;SDS011;16244;51.956;12.980;2022-09-09T06:52:52;7.57;;;1.17;;
29200;SDS011;16244;51.956;12.980;2022-09-09T06:55:19;2.77;;;1.20;;
29200;SDS011;16244;51.956;12.980;2022-09-09T06:57:47;7.70;;;1.30;;
29200;SDS011;16244;51.956;12.980;2022-09-09T07:00:17;2.23;;;0.90;;
29200;SDS011;16244;51.956;12.980;2022-09-09T07:02:44;15.23;;;1.37;;
29200;SDS011;16244;51.956;12.980;2022-09-09T07:05:12;3.80;;;1.20;;
29200;SDS011;16244;51.956;12.980;2022-09-09T07:07:40;1.83;;;1.20;;
29200;SDS011;16244;51.956;12.980;2022-09-09T07:10:08;11.67;;;1.47;;
29200;SDS011;16244;51.956;12.980;2022-09-09T07:12:35;5.97;;;2.43;;
29200;SDS011;16244;51.956;12.980;2022-09-09T07:15:03;2.83;;;0.80;;
29200;SDS011;16244;51.956;12.980;2022-09-09T07:17:32;6.07;;;1.00;;
29200;SDS011;16244;51.956;12.980;2022-09-09T07:19:59;3.77;;;1.27;;
29200;SDS011;16244;51.956;12.980;2022-09-09T07:22:27;10.83;;;1.00;;
29200;SDS011;16244;51.956;12.980;2022-09-09T07:24:54;7.83;;;1.00;;
29200;SDS011;16244;51.956;12.980;2022-09-09T07:27:22;2.90;;;0.80;;
29200;SDS011;16244;51.956;12.980;2022-09-09T07:29:49;4.70;;;0.77;;
29200;SDS011;16244;51.956;12.980;2022-09-09T07:32:16;3.27;;;1.00;;
29200;SDS011;16244;51.956;12.980;2022-09-09T07:34:46;6.53;;;1.00;;
29200;SDS011;16244;51.956;12.980;2022-09-09T07:37:13;3.33;;;1.20;;
29200;SDS011;16244;51.956;12.980;2022-09-09T07:39:42;1.90;;;0.70;;
29200;SDS011;16244;51.956;12.980;2022-09-09T07:42:09;5.17;;;1.20;;
29200;SDS011;16244;51.956;12.980;2022-09-09T07:44:38;8.40;;;1.30;;
29200;SDS011;16244;51.956;12.980;2022-09-09T07:47:06;3.50;;;1.00;;
29200;SDS011;16244;51.956;12.980;2022-09-09T07:49:34;7.13;;;0.83;;
29200;SDS011;16244;51.956;12.980;2022-09-09T07:52:02;4.53;;;1.20;;
29200;SDS011;16244;51.956;12.980;2022-09-09T07:54:29;4.10;;;1.17;;
29200;SDS011;16244;51.956;12.980;2022-09-09T07:56:57;1.73;;;0.90;;
29200;SDS011;16244;51.956;12.980;2022-09-09T07:59:24;2.83;;;1.07;;
29200;SDS011;16244;51.956;12.980;2022-09-09T08:01:52;2.43;;;1.10;;
29200;SDS011;16244;51.956;12.980;2022-09-09T08:04:20;4.00;;;1.43;;
29200;SDS011;16244;51.956;12.980;2022-09-09T08:06:49;4.20;;;1.23;;
29200;SDS011;16244;51.956;12.980;2022-09-09T08:09:19;2.00;;;1.03;;
29200;SDS011;16244;51.956;12.980;2022-09-09T08:11:50;4.10;;;1.13;;
29200;SDS011;16244;51.956;12.980;2022-09-09T08:14:17;7.40;;;0.80;;
29200;SDS011;16244;51.956;12.980;2022-09-09T08:16:45;1.87;;;0.70;;
29200;SDS011;16244;51.956;12.980;2022-09-09T08:19:14;2.27;;;0.97;;
29200;SDS011;16244;51.956;12.980;2022-09-09T08:21:43;4.60;;;0.90;;
29200;SDS011;16244;51.956;12.980;2022-09-09T08:24:11;5.33;;;0.80;;
29200;SDS011;16244;51.956;12.980;2022-09-09T08:26:42;9.90;;;1.07;;
29200;SDS011;16244;51.956;12.980;2022-09-09T08:29:10;6.13;;;1.37;;
29200;SDS011;16244;51.956;12.980;2022-09-09T08:31:39;5.40;;;0.90;;
29200;SDS011;16244;51.956;12.980;2022-09-09T08:34:08;4.43;;;0.77;;
29200;SDS011;16244;51.956;12.980;2022-09-09T08:36:37;7.10;;;0.70;;
29200;SDS011;16244;51.956;12.980;2022-09-09T08:39:06;14.67;;;1.23;;
29200;SDS011;16244;51.956;12.980;2022-09-09T08:44:50;12.93;;;0.80;;
29200;SDS011;16244;51.956;12.980;2022-09-09T08:47:31;6.33;;;1.10;;
29200;SDS011;16244;51.956;12.980;2022-09-09T08:50:19;5.10;;;0.73;;
29200;SDS011;16244;51.956;12.980;2022-09-09T08:52:54;8.53;;;0.70;;
29200;SDS011;16244;51.956;12.980;2022-09-09T08:55:27;7.30;;;0.80;;
29200;SDS011;16244;51.956;12.980;2022-09-09T08:58:04;5.13;;;0.97;;
29200;SDS011;16244;51.956;12.980;2022-09-09T09:00:40;6.93;;;0.70;;
29200;SDS011;16244;51.956;12.980;2022-09-09T09:03:15;8.07;;;0.83;;
29200;SDS011;16244;51.956;12.980;2022-09-09T09:05:51;8.63;;;0.80;;
29200;SDS011;16244;51.956;12.980;2022-09-09T09:08:27;7.47;;;0.70;;
29200;SDS011;16244;51.956;12.980;2022-09-09T09:11:03;10.73;;;1.70;;
29200;SDS011;16244;51.956;12.980;2022-09-09T09:13:34;8.40;;;1.00;;
29200;SDS011;16244;51.956;12.980;2022-09-09T09:16:06;7.05;;;0.90;;
29200;SDS011;16244;51.956;12.980;2022-09-09T09:18:43;14.02;;;1.95;;
29200;SDS011;16244;51.956;12.980;2022-09-09T09:21:12;9.73;;;0.60;;
29200;SDS011;16244;51.956;12.980;2022-09-09T09:23:45;11.27;;;0.80;;
29200;SDS011;16244;51.956;12.980;2022-09-09T09:26:18;15.32;;;0.80;;
29200;SDS011;16244;51.956;12.980;2022-09-09T09:28:49;9.30;;;0.57;;
29200;SDS011;16244;51.956;12.980;2022-09-09T09:31:17;15.80;;;0.60;;
29200;SDS011;16244;51.956;12.980;2022-09-09T09:33:47;10.65;;;0.55;;
29200;SDS011;16244;51.956;12.980;2022-09-09T09:36:18;10.20;;;0.70;;
29200;SDS011;16244;51.956;12.980;2022-09-09T09:38:52;13.77;;;0.70;;
29200;SDS011;16244;51.956;12.980;2022-09-09T09:41:28;12.30;;;0.70;;
29200;SDS011;16244;51.956;12.980;2022-09-09T09:43:58;16.80;;;0.77;;
29200;SDS011;16244;51.956;12.980;2022-09-09T09:46:27;14.38;;;0.70;;
29200;SDS011;16244;51.956;12.980;2022-09-09T09:48:58;18.42;;;0.65;;
29200;SDS011;16244;51.956;12.980;2022-09-09T09:51:27;14.82;;;0.80;;
29200;SDS011;16244;51.956;12.980;2022-09-09T09:54:14;16.35;;;0.65;;
29200;SDS011;16244;51.956;12.980;2022-09-09T09:56:45;13.98;;;0.60;;
29200;SDS011;16244;51.956;12.980;2022-09-09T09:59:21;23.58;;;0.70;;
29200;SDS011;16244;51.956;12.980;2022-09-09T10:02:11;22.83;;;1.00;;
29200;SDS011;16244;51.956;12.980;2022-09-09T10:04:44;21.70;;;0.70;;
29200;SDS011;16244;51.956;12.980;2022-09-09T10:07:12;25.27;;;0.70;;
29200;SDS011;16244;51.956;12.980;2022-09-09T10:09:43;20.80;;;0.90;;
29200;SDS011;16244;51.956;12.980;2022-09-09T10:12:14;19.83;;;0.80;;
29200;SDS011;16244;51.956;12.980;2022-09-09T10:14:54;20.80;;;0.60;;
29200;SDS011;16244;51.956;12.980;2022-09-09T10:17:27;27.60;;;3.40;;
29200;SDS011;16244;51.956;12.980;2022-09-09T10:20:07;9.18;;;1.35;;
29200;SDS011;16244;51.956;12.980;2022-09-09T10:22:50;9.60;;;0.70;;
29200;SDS011;16244;51.956;12.980;2022-09-09T10:25:26;10.10;;;0.63;;
29200;SDS011;16244;51.956;12.980;2022-09-09T10:28:09;9.82;;;0.93;;
29200;SDS011;16244;51.956;12.980;2022-09-09T10:30:53;10.40;;;0.70;;
29200;SDS011;16244;51.956;12.980;2022-09-09T10:33:31;13.00;;;0.85;;
29200;SDS011;16244;51.956;12.980;2022-09-09T10:36:06;11.27;;;0.70;;
29200;SDS011;16244;51.956;12.980;2022-09-09T10:38:40;10.30;;;0.57;;
29200;SDS011;16244;51.956;12.980;2022-09-09T10:41:15;9.88;;;0.60;;
29200;SDS011;16244;51.956;12.980;2022-09-09T10:43:50;16.30;;;0.88;;
29200;SDS011;16244;51.956;12.980;2022-09-09T10:46:33;12.77;;;0.90;;
29200;SDS011;16244;51.956;12.980;2022-09-09T10:49:15;15.00;;;0.90;;
29200;SDS011;16244;51.956;12.980;2022-09-09T10:51:50;11.55;;;0.60;;
29200;SDS011;16244;51.956;12.980;2022-09-09T10:54:29;13.32;;;0.80;;
29200;SDS011;16244;51.956;12.980;2022-09-09T10:57:04;8.95;;;0.70;;
29200;SDS011;16244;51.956;12.980;2022-09-09T10:59:38;54.92;;;3.10;;
29200;SDS011;16244;51.956;12.980;2022-09-09T11:02:13;15.65;;;2.10;;
29200;SDS011;16244;51.956;12.980;2022-09-09T11:04:46;10.43;;;0.82;;
29200;SDS011;16244;51.956;12.980;2022-09-09T11:07:21;11.63;;;0.85;;
29200;SDS011;16244;51.956;12.980;2022-09-09T11:09:54;11.07;;;0.70;;
29200;SDS011;16244;51.956;12.980;2022-09-09T11:12:28;15.15;;;1.00;;
29200;SDS011;16244;51.956;12.980;2022-09-09T11:14:59;11.20;;;0.70;;
29200;SDS011;16244;51.956;12.980;2022-09-09T11:17:35;11.48;;;0.70;;
29200;SDS011;16244;51.956;12.980;2022-09-09T11:20:11;10.80;;;0.65;;
29200;SDS011;16244;51.956;12.980;2022-09-09T11:22:39;12.25;;;1.15;;
29200;SDS011;16244;51.956;12.980;2022-09-09T11:25:15;9.73;;;0.70;;
29200;SDS011;16244;51.956;12.980;2022-09-09T11:27:47;10.25;;;0.60;;
29200;SDS011;16244;51.956;12.980;2022-09-09T11:30:25;10.57;;;0.73;;
29200;SDS011;16244;51.956;12.980;2022-09-09T11:33:09;9.07;;;0.70;;
29200;SDS011;16244;51.956;12.980;2022-09-09T11:35:52;7.20;;;0.60;;
29200;SDS011;16244;51.956;12.980;2022-09-09T11:38:28;7.05;;;0.73;;
29200;SDS011;16244;51.956;12.980;2022-09-09T11:41:01;8.40;;;0.70;;
29200;SDS011;16244;51.956;12.980;2022-09-09T11:43:32;15.48;;;0.70;;
29200;SDS011;16244;51.956;12.980;2022-09-09T11:46:05;6.30;;;0.70;;
29200;SDS011;16244;51.956;12.980;2022-09-09T11:48:35;7.00;;;0.60;;
29200;SDS011;16244;51.956;12.980;2022-09-09T11:51:05;9.88;;;0.60;;
29200;SDS011;16244;51.956;12.980;2022-09-09T11:53:34;7.88;;;0.70;;
29200;SDS011;16244;51.956;12.980;2022-09-09T11:56:03;7.47;;;0.93;;
29200;SDS011;16244;51.956;12.980;2022-09-09T11:58:37;12.05;;;0.75;;
29200;SDS011;16244;51.956;12.980;2022-09-09T12:01:13;8.77;;;0.60;;
29200;SDS011;16244;51.956;12.980;2022-09-09T12:03:43;7.03;;;0.63;;
29200;SDS011;16244;51.956;12.980;2022-09-09T12:06:13;6.40;;;0.50;;
29200;SDS011;16244;51.956;12.980;2022-09-09T12:08:47;7.40;;;0.70;;
29200;SDS011;16244;51.956;12.980;2022-09-09T12:11:25;7.10;;;0.60;;
29200;SDS011;16244;51.956;12.980;2022-09-09T12:13:54;8.83;;;0.90;;
29200;SDS011;16244;51.956;12.980;2022-09-09T12:16:30;8.97;;;0.80;;
29200;SDS011;16244;51.956;12.980;2022-09-09T12:19:05;5.78;;;0.60;;
29200;SDS011;16244;51.956;12.980;2022-09-09T12:21:41;7.72;;;0.70;;
29200;SDS011;16244;51.956;12.980;2022-09-09T12:24:16;9.98;;;0.65;;
29200;SDS011;16244;51.956;12.980;2022-09-09T12:26:47;6.90;;;0.63;;
29200;SDS011;16244;51.956;12.980;2022-09-09T12:29:23;9.15;;;0.70;;
29200;SDS011;16244;51.956;12.980;2022-09-09T12:31:56;11.33;;;0.70;;
29200;SDS011;16244;51.956;12.980;2022-09-09T12:34:33;5.55;;;0.93;;
29200;SDS011;16244;51.956;12.980;2022-09-09T12:37:05;7.28;;;0.98;;
29200;SDS011;16244;51.956;12.980;2022-09-09T12:39:41;10.15;;;0.60;;
29200;SDS011;16244;51.956;12.980;2022-09-09T12:42:15;8.80;;;0.70;;
29200;SDS011;16244;51.956;12.980;2022-09-09T12:44:53;6.33;;;0.90;;
29200;SDS011;16244;51.956;12.980;2022-09-09T12:47:23;6.50;;;1.20;;
29200;SDS011;16244;51.956;12.980;2022-09-09T12:49:55;6.97;;;1.10;;
29200;SDS011;16244;51.956;12.980;2022-09-09T12:52:24;8.70;;;0.90;;
29200;SDS011;16244;51.956;12.980;2022-09-09T12:54:55;8.73;;;1.13;;
29200;SDS011;16244;51.956;12.980;2022-09-09T12:57:23;7.93;;;1.08;;
29200;SDS011;16244;51.956;12.980;2022-09-09T12:59:52;7.72;;;0.90;;
29200;SDS011;16244;51.956;12.980;2022-09-09T13:02:32;5.63;;;0.73;;
29200;SDS011;16244;51.956;12.980;2022-09-09T13:05:08;5.70;;;0.90;;
29200;SDS011;16244;51.956;12.980;2022-09-09T13:07:42;7.63;;;0.77;;
29200;SDS011;16244;51.956;12.980;2022-09-09T13:10:11;4.60;;;0.60;;
29200;SDS011;16244;51.956;12.980;2022-09-09T13:12:39;6.40;;;0.70;;
29200;SDS011;16244;51.956;12.980;2022-09-09T13:15:10;9.23;;;0.70;;
29200;SDS011;16244;51.956;12.980;2022-09-09T13:17:48;6.17;;;0.60;;
29200;SDS011;16244;51.956;12.980;2022-09-09T13:20:22;8.60;;;0.70;;
29200;SDS011;16244;51.956;12.980;2022-09-09T13:22:50;5.60;;;0.70;;
29200;SDS011;16244;51.956;12.980;2022-09-09T13:25:21;6.63;;;0.70;;
29200;SDS011;16244;51.956;12.980;2022-09-09T13:27:55;8.57;;;0.80;;
29200;SDS011;16244;51.956;12.980;2022-09-09T13:30:28;8.83;;;0.90;;
29200;SDS011;16244;51.956;12.980;2022-09-09T13:33:05;8.13;;;0.70;;
29200;SDS011;16244;51.956;12.980;2022-09-09T13:35:47;11.60;;;0.73;;
29200;SDS011;16244;51.956;12.980;2022-09-09T13:38:16;15.30;;;1.40;;
29200;SDS011;16244;51.956;12.980;2022-09-09T13:40:53;8.47;;;1.30;;
29200;SDS011;16244;51.956;12.980;2022-09-09T13:43:23;6.27;;;0.87;;
29200;SDS011;16244;51.956;12.980;2022-09-09T13:45:53;7.63;;;0.97;;
29200;SDS011;16244;51.956;12.980;2022-09-09T13:48:21;17.90;;;1.20;;
29200;SDS011;16244;51.956;12.980;2022-09-09T13:50:57;9.67;;;1.77;;
29200;SDS011;16244;51.956;12.980;2022-09-09T13:53:30;8.37;;;1.30;;
29200;SDS011;16244;51.956;12.980;2022-09-09T13:55:58;13.33;;;0.90;;
29200;SDS011;16244;51.956;12.980;2022-09-09T13:58:26;7.93;;;1.10;;
29200;SDS011;16244;51.956;12.980;2022-09-09T14:00:53;6.97;;;0.77;;
29200;SDS011;16244;51.956;12.980;2022-09-09T14:03:21;10.20;;;0.70;;
29200;SDS011;16244;51.956;12.980;2022-09-09T14:05:48;16.73;;;1.20;;
29200;SDS011;16244;51.956;12.980;2022-09-09T14:08:22;7.50;;;0.80;;
29200;SDS011;16244;51.956;12.980;2022-09-09T14:10:50;6.30;;;0.80;;
29200;SDS011;16244;51.956;12.980;2022-09-09T14:13:18;5.83;;;1.20;;
29200;SDS011;16244;51.956;12.980;2022-09-09T14:15:47;8.13;;;0.80;;
29200;SDS011;16244;51.956;12.980;2022-09-09T14:18:15;7.53;;;1.20;;
29200;SDS011;16244;51.956;12.980;2022-09-09T14:20:42;8.23;;;1.37;;
29200;SDS011;16244;51.956;12.980;2022-09-09T14:23:10;6.13;;;0.83;;
29200;SDS011;16244;51.956;12.980;2022-09-09T14:25:43;5.73;;;0.70;;
29200;SDS011;16244;51.956;12.980;2022-09-09T14:28:10;5.33;;;0.77;;
29200;SDS011;16244;51.956;12.980;2022-09-09T14:30:38;5.10;;;0.60;;
29200;SDS011;16244;51.956;12.980;2022-09-09T14:33:07;4.70;;;0.60;;
29200;SDS011;16244;51.956;12.980;2022-09-09T14:35:34;3.03;;;0.70;;
29200;SDS011;16244;51.956;12.980;2022-09-09T14:38:02;2.13;;;0.60;;
29200;SDS011;16244;51.956;12.980;2022-09-09T14:40:30;7.80;;;0.70;;
29200;SDS011;16244;51.956;12.980;2022-09-09T14:42:59;3.00;;;0.60;;
29200;SDS011;16244;51.956;12.980;2022-09-09T14:45:35;7.70;;;0.90;;
29200;SDS011;16244;51.956;12.980;2022-09-09T14:48:18;8.03;;;0.70;;
29200;SDS011;16244;51.956;12.980;2022-09-09T14:51:07;3.43;;;0.60;;
29200;SDS011;16244;51.956;12.980;2022-09-09T14:54:01;6.33;;;0.60;;
29200;SDS011;16244;51.956;12.980;2022-09-09T14:56:30;8.67;;;0.80;;
29200;SDS011;16244;51.956;12.980;2022-09-09T14:59:00;4.37;;;0.70;;
29200;SDS011;16244;51.956;12.980;2022-09-09T15:01:27;5.57;;;0.70;;
29200;SDS011;16244;51.956;12.980;2022-09-09T15:03:56;7.40;;;0.70;;
29200;SDS011;16244;51.956;12.980;2022-09-09T15:06:25;6.60;;;0.70;;
29200;SDS011;16244;51.956;12.980;2022-09-09T15:08:54;8.57;;;0.77;;
29200;SDS011;16244;51.956;12.980;2022-09-09T15:11:25;6.70;;;0.60;;
29200;SDS011;16244;51.956;12.980;2022-09-09T15:13:54;9.40;;;1.37;;